sensor_id;sensor_type;location;lat;lon;timestamp;P1;durP1;ratioP1;P2;durP2;ratioP2
21352;SDS011;10834;52.268;6.770;2024-02-16T00:00:04;6.40;;;1.40;;
21352;SDS011;10834;52.268;6.770;2024-02-16T00:02:49;4.07;;;2.17;;
21352;SDS011;10834;52.268;6.770;2024-02-16T00:05:33;2.03;;;1.73;;
21352;SDS011;10834;52.268;6.770;2024-02-16T00:08:18;3.33;;;1.97;;
21352;SDS011;10834;52.268;6.770;2024-02-16T00:11:03;5.03;;;1.90;;
21352;SDS011;10834;52.268;6.770;2024-02-16T00:13:48;5.07;;;1.70;;
21352;SDS011;10834;52.268;6.770;2024-02-16T00:16:32;5.30;;;2.20;;
21352;SDS011;10834;52.268;6.770;2024-02-16T00:19:16;4.13;;;1.60;;
21352;SDS011;10834;52.268;6.770;2024-02-16T00:22:00;7.50;;;1.80;;
21352;SDS011;10834;52.268;6.770;2024-02-16T00:24:45;4.60;;;1.60;;
21352;SDS011;10834;52.268;6.770;2024-02-16T00:27:30;2.17;;;1.40;;
21352;SDS011;10834;52.268;6.770;2024-02-16T00:30:14;2.60;;;1.53;;
21352;SDS011;10834;52.268;6.770;2024-02-16T00:33:01;2.87;;;1.83;;
21352;SDS011;10834;52.268;6.770;2024-02-16T00:35:45;5.27;;;1.30;;
21352;SDS011;10834;52.268;6.770;2024-02-16T00:38:32;2.07;;;1.33;;
21352;SDS011;10834;52.268;6.770;2024-02-16T00:41:18;3.50;;;1.57;;
21352;SDS011;10834;52.268;6.770;2024-02-16T00:44:03;4.17;;;1.97;;
21352;SDS011;10834;52.268;6.770;2024-02-16T00:46:47;3.33;;;1.63;;
21352;SDS011;10834;52.268;6.770;2024-02-16T00:49:32;2.70;;;1.60;;
21352;SDS011;10834;52.268;6.770;2024-02-16T00:52:16;1.97;;;1.50;;
21352;SDS011;10834;52.268;6.770;2024-02-16T00:55:01;2.13;;;1.37;;
21352;SDS011;10834;52.268;6.770;2024-02-16T00:57:47;3.43;;;1.63;;
21352;SDS011;10834;52.268;6.770;2024-02-16T01:00:31;3.23;;;2.40;;
21352;SDS011;10834;52.268;6.770;2024-02-16T01:03:15;6.77;;;2.30;;
21352;SDS011;10834;52.268;6.770;2024-02-16T01:05:59;3.03;;;1.80;;
21352;SDS011;10834;52.268;6.770;2024-02-16T01:08:43;4.70;;;2.13;;
21352;SDS011;10834;52.268;6.770;2024-02-16T01:11:27;3.83;;;1.73;;
21352;SDS011;10834;52.268;6.770;2024-02-16T01:14:12;4.33;;;1.30;;
21352;SDS011;10834;52.268;6.770;2024-02-16T01:16:55;5.83;;;1.83;;
21352;SDS011;10834;52.268;6.770;2024-02-16T01:19:40;2.20;;;1.63;;
21352;SDS011;10834;52.268;6.770;2024-02-16T01:22:24;3.27;;;1.43;;
21352;SDS011;10834;52.268;6.770;2024-02-16T01:25:08;4.33;;;2.07;;
21352;SDS011;10834;52.268;6.770;2024-02-16T01:27:52;5.30;;;2.20;;
21352;SDS011;10834;52.268;6.770;2024-02-16T01:30:36;2.20;;;1.80;;
21352;SDS011;10834;52.268;6.770;2024-02-16T01:33:21;4.33;;;1.70;;
21352;SDS011;10834;52.268;6.770;2024-02-16T01:36:05;6.07;;;1.83;;
21352;SDS011;10834;52.268;6.770;2024-02-16T01:38:49;3.43;;;1.57;;
21352;SDS011;10834;52.268;6.770;2024-02-16T01:41:33;4.63;;;1.90;;
21352;SDS011;10834;52.268;6.770;2024-02-16T01:44:21;2.90;;;2.00;;
21352;SDS011;10834;52.268;6.770;2024-02-16T01:47:06;3.60;;;2.30;;
21352;SDS011;10834;52.268;6.770;2024-02-16T01:49:50;7.10;;;1.67;;
21352;SDS011;10834;52.268;6.770;2024-02-16T01:52:34;5.83;;;2.10;;
21352;SDS011;10834;52.268;6.770;2024-02-16T01:55:20;2.10;;;1.57;;
21352;SDS011;10834;52.268;6.770;2024-02-16T01:58:04;6.37;;;2.10;;
21352;SDS011;10834;52.268;6.770;2024-02-16T02:00:49;5.13;;;1.90;;
21352;SDS011;10834;52.268;6.770;2024-02-16T02:03:33;6.23;;;2.07;;
21352;SDS011;10834;52.268;6.770;2024-02-16T02:06:18;4.57;;;2.30;;
21352;SDS011;10834;52.268;6.770;2024-02-16T02:09:02;5.27;;;2.20;;
21352;SDS011;10834;52.268;6.770;2024-02-16T02:11:46;4.93;;;2.20;;
21352;SDS011;10834;52.268;6.770;2024-02-16T02:14:31;6.87;;;2.40;;
21352;SDS011;10834;52.268;6.770;2024-02-16T02:17:15;2.90;;;1.83;;
21352;SDS011;10834;52.268;6.770;2024-02-16T02:20:01;4.93;;;2.13;;
21352;SDS011;10834;52.268;6.770;2024-02-16T02:22:47;5.17;;;2.37;;
21352;SDS011;10834;52.268;6.770;2024-02-16T02:25:31;4.30;;;3.10;;
21352;SDS011;10834;52.268;6.770;2024-02-16T02:28:15;3.73;;;2.30;;
21352;SDS011;10834;52.268;6.770;2024-02-16T02:30:59;2.37;;;1.80;;
21352;SDS011;10834;52.268;6.770;2024-02-16T02:33:44;5.43;;;2.27;;
21352;SDS011;10834;52.268;6.770;2024-02-16T02:36:28;5.43;;;2.47;;
21352;SDS011;10834;52.268;6.770;2024-02-16T02:39:12;3.83;;;1.90;;
21352;SDS011;10834;52.268;6.770;2024-02-16T02:41:57;3.27;;;2.30;;
21352;SDS011;10834;52.268;6.770;2024-02-16T02:44:41;4.80;;;2.50;;
21352;SDS011;10834;52.268;6.770;2024-02-16T02:47:32;3.73;;;2.20;;
21352;SDS011;10834;52.268;6.770;2024-02-16T02:50:17;4.30;;;2.10;;
21352;SDS011;10834;52.268;6.770;2024-02-16T02:53:01;5.67;;;2.33;;
21352;SDS011;10834;52.268;6.770;2024-02-16T02:55:45;5.93;;;2.27;;
21352;SDS011;10834;52.268;6.770;2024-02-16T02:58:29;8.80;;;3.20;;
21352;SDS011;10834;52.268;6.770;2024-02-16T03:01:14;4.07;;;2.20;;
21352;SDS011;10834;52.268;6.770;2024-02-16T03:03:59;4.83;;;2.57;;
21352;SDS011;10834;52.268;6.770;2024-02-16T03:06:44;4.23;;;2.10;;
21352;SDS011;10834;52.268;6.770;2024-02-16T03:09:28;5.73;;;2.57;;
21352;SDS011;10834;52.268;6.770;2024-02-16T03:12:12;2.53;;;2.33;;
21352;SDS011;10834;52.268;6.770;2024-02-16T03:14:56;4.77;;;2.27;;
21352;SDS011;10834;52.268;6.770;2024-02-16T03:17:41;4.60;;;2.50;;
21352;SDS011;10834;52.268;6.770;2024-02-16T03:20:25;3.20;;;2.50;;
21352;SDS011;10834;52.268;6.770;2024-02-16T03:23:09;4.27;;;2.50;;
21352;SDS011;10834;52.268;6.770;2024-02-16T03:25:53;4.73;;;2.30;;
21352;SDS011;10834;52.268;6.770;2024-02-16T03:28:38;4.17;;;2.77;;
21352;SDS011;10834;52.268;6.770;2024-02-16T03:31:24;4.80;;;2.20;;
21352;SDS011;10834;52.268;6.770;2024-02-16T03:34:08;9.17;;;2.60;;
21352;SDS011;10834;52.268;6.770;2024-02-16T03:36:52;6.17;;;2.80;;
21352;SDS011;10834;52.268;6.770;2024-02-16T03:39:37;4.77;;;2.17;;
21352;SDS011;10834;52.268;6.770;2024-02-16T03:42:22;3.30;;;3.00;;
21352;SDS011;10834;52.268;6.770;2024-02-16T03:45:06;4.87;;;2.30;;
21352;SDS011;10834;52.268;6.770;2024-02-16T03:47:51;3.07;;;2.23;;
21352;SDS011;10834;52.268;6.770;2024-02-16T03:50:38;4.63;;;2.67;;
21352;SDS011;10834;52.268;6.770;2024-02-16T03:53:23;4.43;;;2.47;;
21352;SDS011;10834;52.268;6.770;2024-02-16T03:56:07;6.13;;;2.50;;
21352;SDS011;10834;52.268;6.770;2024-02-16T03:58:51;3.00;;;2.50;;
21352;SDS011;10834;52.268;6.770;2024-02-16T04:01:36;6.13;;;2.50;;
21352;SDS011;10834;52.268;6.770;2024-02-16T04:04:20;3.43;;;2.50;;
21352;SDS011;10834;52.268;6.770;2024-02-16T04:07:04;5.70;;;2.53;;
21352;SDS011;10834;52.268;6.770;2024-02-16T04:09:50;6.67;;;2.80;;
21352;SDS011;10834;52.268;6.770;2024-02-16T04:12:34;7.40;;;2.53;;
21352;SDS011;10834;52.268;6.770;2024-02-16T04:15:19;7.00;;;1.87;;
21352;SDS011;10834;52.268;6.770;2024-02-16T04:18:04;4.60;;;2.23;;
21352;SDS011;10834;52.268;6.770;2024-02-16T04:20:48;4.70;;;2.23;;
21352;SDS011;10834;52.268;6.770;2024-02-16T04:23:32;6.87;;;2.10;;
21352;SDS011;10834;52.268;6.770;2024-02-16T04:26:16;5.60;;;2.40;;
21352;SDS011;10834;52.268;6.770;2024-02-16T04:29:00;3.83;;;2.20;;
21352;SDS011;10834;52.268;6.770;2024-02-16T04:31:48;4.43;;;2.27;;
21352;SDS011;10834;52.268;6.770;2024-02-16T04:34:32;5.33;;;2.50;;
21352;SDS011;10834;52.268;6.770;2024-02-16T04:37:16;5.73;;;2.30;;
21352;SDS011;10834;52.268;6.770;2024-02-16T04:40:02;2.83;;;2.23;;
21352;SDS011;10834;52.268;6.770;2024-02-16T04:42:46;4.30;;;2.07;;
21352;SDS011;10834;52.268;6.770;2024-02-16T04:45:31;6.10;;;2.37;;
21352;SDS011;10834;52.268;6.770;2024-02-16T04:48:15;3.63;;;2.47;;
21352;SDS011;10834;52.268;6.770;2024-02-16T04:50:59;3.60;;;2.17;;
21352;SDS011;10834;52.268;6.770;2024-02-16T04:53:43;4.70;;;2.40;;
21352;SDS011;10834;52.268;6.770;2024-02-16T04:56:27;5.97;;;2.40;;
21352;SDS011;10834;52.268;6.770;2024-02-16T04:59:11;5.40;;;2.17;;
21352;SDS011;10834;52.268;6.770;2024-02-16T05:01:55;8.63;;;3.00;;
21352;SDS011;10834;52.268;6.770;2024-02-16T05:04:39;2.70;;;2.20;;
21352;SDS011;10834;52.268;6.770;2024-02-16T05:07:23;5.70;;;2.70;;
21352;SDS011;10834;52.268;6.770;2024-02-16T05:10:10;6.23;;;2.93;;
21352;SDS011;10834;52.268;6.770;2024-02-16T05:12:54;3.47;;;2.57;;
21352;SDS011;10834;52.268;6.770;2024-02-16T05:15:39;4.27;;;1.90;;
21352;SDS011;10834;52.268;6.770;2024-02-16T05:18:23;3.73;;;2.20;;
21352;SDS011;10834;52.268;6.770;2024-02-16T05:21:08;5.47;;;2.70;;
21352;SDS011;10834;52.268;6.770;2024-02-16T05:23:53;5.53;;;2.40;;
21352;SDS011;10834;52.268;6.770;2024-02-16T05:26:37;3.93;;;2.30;;
21352;SDS011;10834;52.268;6.770;2024-02-16T05:29:22;5.40;;;2.67;;
21352;SDS011;10834;52.268;6.770;2024-02-16T05:32:06;3.67;;;2.40;;
21352;SDS011;10834;52.268;6.770;2024-02-16T05:34:50;6.70;;;2.83;;
21352;SDS011;10834;52.268;6.770;2024-02-16T05:37:34;4.30;;;2.50;;
21352;SDS011;10834;52.268;6.770;2024-02-16T05:40:18;4.40;;;3.30;;
21352;SDS011;10834;52.268;6.770;2024-02-16T05:43:08;4.40;;;2.93;;
21352;SDS011;10834;52.268;6.770;2024-02-16T05:45:52;5.13;;;3.07;;
21352;SDS011;10834;52.268;6.770;2024-02-16T05:48:36;4.17;;;2.80;;
21352;SDS011;10834;52.268;6.770;2024-02-16T05:51:23;7.30;;;3.20;;
21352;SDS011;10834;52.268;6.770;2024-02-16T05:54:07;5.43;;;3.13;;
21352;SDS011;10834;52.268;6.770;2024-02-16T05:56:52;4.03;;;2.80;;
21352;SDS011;10834;52.268;6.770;2024-02-16T05:59:36;5.40;;;3.00;;
21352;SDS011;10834;52.268;6.770;2024-02-16T06:02:21;6.53;;;3.20;;
21352;SDS011;10834;52.268;6.770;2024-02-16T06:05:09;4.63;;;2.90;;
21352;SDS011;10834;52.268;6.770;2024-02-16T06:07:53;4.63;;;3.10;;
21352;SDS011;10834;52.268;6.770;2024-02-16T06:10:37;8.47;;;3.30;;
21352;SDS011;10834;52.268;6.770;2024-02-16T06:13:21;8.30;;;3.77;;
21352;SDS011;10834;52.268;6.770;2024-02-16T06:16:05;4.07;;;3.00;;
21352;SDS011;10834;52.268;6.770;2024-02-16T06:18:53;5.50;;;3.27;;
21352;SDS011;10834;52.268;6.770;2024-02-16T06:21:37;6.73;;;4.33;;
21352;SDS011;10834;52.268;6.770;2024-02-16T06:24:22;7.67;;;3.20;;
21352;SDS011;10834;52.268;6.770;2024-02-16T06:27:06;6.27;;;3.40;;
21352;SDS011;10834;52.268;6.770;2024-02-16T06:29:51;6.20;;;3.73;;
21352;SDS011;10834;52.268;6.770;2024-02-16T06:32:35;5.97;;;3.30;;
21352;SDS011;10834;52.268;6.770;2024-02-16T06:35:20;7.10;;;3.23;;
21352;SDS011;10834;52.268;6.770;2024-02-16T06:38:04;5.97;;;3.70;;
21352;SDS011;10834;52.268;6.770;2024-02-16T06:40:49;5.37;;;3.23;;
21352;SDS011;10834;52.268;6.770;2024-02-16T06:43:33;8.93;;;3.70;;
21352;SDS011;10834;52.268;6.770;2024-02-16T06:46:17;8.47;;;3.67;;
21352;SDS011;10834;52.268;6.770;2024-02-16T06:49:01;5.80;;;2.90;;
21352;SDS011;10834;52.268;6.770;2024-02-16T06:51:45;5.83;;;3.60;;
21352;SDS011;10834;52.268;6.770;2024-02-16T06:54:29;6.93;;;2.80;;
21352;SDS011;10834;52.268;6.770;2024-02-16T06:57:13;5.97;;;3.07;;
21352;SDS011;10834;52.268;6.770;2024-02-16T06:59:57;6.40;;;3.53;;
21352;SDS011;10834;52.268;6.770;2024-02-16T07:02:42;5.47;;;2.73;;
21352;SDS011;10834;52.268;6.770;2024-02-16T07:05:26;5.93;;;3.40;;
21352;SDS011;10834;52.268;6.770;2024-02-16T07:08:12;4.10;;;3.03;;
21352;SDS011;10834;52.268;6.770;2024-02-16T07:10:56;10.57;;;3.23;;
21352;SDS011;10834;52.268;6.770;2024-02-16T07:13:40;10.07;;;4.30;;
21352;SDS011;10834;52.268;6.770;2024-02-16T07:16:26;8.67;;;3.50;;
21352;SDS011;10834;52.268;6.770;2024-02-16T07:19:10;8.53;;;3.77;;
21352;SDS011;10834;52.268;6.770;2024-02-16T07:21:54;8.37;;;3.50;;
21352;SDS011;10834;52.268;6.770;2024-02-16T07:24:38;4.97;;;3.37;;
21352;SDS011;10834;52.268;6.770;2024-02-16T07:27:22;7.70;;;3.33;;
21352;SDS011;10834;52.268;6.770;2024-02-16T07:30:06;7.37;;;3.33;;
21352;SDS011;10834;52.268;6.770;2024-02-16T07:32:51;6.07;;;3.27;;
21352;SDS011;10834;52.268;6.770;2024-02-16T07:35:36;8.57;;;3.53;;
21352;SDS011;10834;52.268;6.770;2024-02-16T07:38:21;5.70;;;3.57;;
21352;SDS011;10834;52.268;6.770;2024-02-16T07:41:05;5.17;;;3.20;;
21352;SDS011;10834;52.268;6.770;2024-02-16T07:43:50;6.50;;;3.10;;
21352;SDS011;10834;52.268;6.770;2024-02-16T07:46:39;9.73;;;3.60;;
21352;SDS011;10834;52.268;6.770;2024-02-16T07:49:24;7.80;;;3.10;;
21352;SDS011;10834;52.268;6.770;2024-02-16T07:52:08;4.43;;;2.83;;
21352;SDS011;10834;52.268;6.770;2024-02-16T07:54:52;11.83;;;3.30;;
21352;SDS011;10834;52.268;6.770;2024-02-16T07:57:36;5.23;;;3.00;;
21352;SDS011;10834;52.268;6.770;2024-02-16T08:00:21;3.57;;;2.90;;
21352;SDS011;10834;52.268;6.770;2024-02-16T08:03:05;6.00;;;2.77;;
21352;SDS011;10834;52.268;6.770;2024-02-16T08:05:50;4.27;;;3.40;;
21352;SDS011;10834;52.268;6.770;2024-02-16T08:08:34;5.40;;;2.87;;
21352;SDS011;10834;52.268;6.770;2024-02-16T08:11:18;6.50;;;2.87;;
21352;SDS011;10834;52.268;6.770;2024-02-16T08:14:04;6.13;;;2.80;;
21352;SDS011;10834;52.268;6.770;2024-02-16T08:16:48;6.37;;;2.53;;
21352;SDS011;10834;52.268;6.770;2024-02-16T08:19:33;3.63;;;2.30;;
21352;SDS011;10834;52.268;6.770;2024-02-16T08:22:19;5.93;;;3.37;;
21352;SDS011;10834;52.268;6.770;2024-02-16T08:25:04;4.33;;;2.93;;
21352;SDS011;10834;52.268;6.770;2024-02-16T08:27:49;4.87;;;2.90;;
21352;SDS011;10834;52.268;6.770;2024-02-16T08:30:33;3.10;;;2.33;;
21352;SDS011;10834;52.268;6.770;2024-02-16T08:33:17;4.00;;;2.40;;
21352;SDS011;10834;52.268;6.770;2024-02-16T08:36:03;10.10;;;2.90;;
21352;SDS011;10834;52.268;6.770;2024-02-16T08:38:49;5.13;;;2.80;;
21352;SDS011;10834;52.268;6.770;2024-02-16T08:41:33;3.87;;;2.77;;
21352;SDS011;10834;52.268;6.770;2024-02-16T08:44:18;3.67;;;2.70;;
21352;SDS011;10834;52.268;6.770;2024-02-16T08:47:02;2.40;;;2.20;;
21352;SDS011;10834;52.268;6.770;2024-02-16T08:49:46;4.73;;;2.40;;
21352;SDS011;10834;52.268;6.770;2024-02-16T08:52:31;7.33;;;2.70;;
21352;SDS011;10834;52.268;6.770;2024-02-16T08:55:15;6.67;;;2.80;;
21352;SDS011;10834;52.268;6.770;2024-02-16T08:58:00;3.97;;;2.60;;
21352;SDS011;10834;52.268;6.770;2024-02-16T09:00:44;9.73;;;2.87;;
21352;SDS011;10834;52.268;6.770;2024-02-16T09:03:29;4.37;;;2.77;;
21352;SDS011;10834;52.268;6.770;2024-02-16T09:06:20;5.90;;;2.70;;
21352;SDS011;10834;52.268;6.770;2024-02-16T09:09:05;6.37;;;3.10;;
21352;SDS011;10834;52.268;6.770;2024-02-16T09:11:51;6.80;;;2.87;;
21352;SDS011;10834;52.268;6.770;2024-02-16T09:14:35;3.87;;;2.70;;
21352;SDS011;10834;52.268;6.770;2024-02-16T09:17:19;5.13;;;3.00;;
21352;SDS011;10834;52.268;6.770;2024-02-16T09:20:04;3.20;;;2.73;;
21352;SDS011;10834;52.268;6.770;2024-02-16T09:22:51;5.00;;;3.00;;
21352;SDS011;10834;52.268;6.770;2024-02-16T09:25:36;7.17;;;3.20;;
21352;SDS011;10834;52.268;6.770;2024-02-16T09:28:20;6.10;;;3.40;;
21352;SDS011;10834;52.268;6.770;2024-02-16T09:31:05;4.57;;;3.30;;
21352;SDS011;10834;52.268;6.770;2024-02-16T09:33:50;5.13;;;3.20;;
21352;SDS011;10834;52.268;6.770;2024-02-16T09:36:35;11.23;;;3.07;;
21352;SDS011;10834;52.268;6.770;2024-02-16T09:39:21;5.30;;;3.30;;
21352;SDS011;10834;52.268;6.770;2024-02-16T09:42:05;7.63;;;2.90;;
21352;SDS011;10834;52.268;6.770;2024-02-16T09:44:49;12.27;;;3.23;;
21352;SDS011;10834;52.268;6.770;2024-02-16T09:47:34;5.93;;;2.97;;
21352;SDS011;10834;52.268;6.770;2024-02-16T09:50:20;5.93;;;3.10;;
21352;SDS011;10834;52.268;6.770;2024-02-16T09:53:05;5.47;;;2.90;;
21352;SDS011;10834;52.268;6.770;2024-02-16T09:55:52;8.00;;;3.43;;
21352;SDS011;10834;52.268;6.770;2024-02-16T09:58:37;6.23;;;2.90;;
21352;SDS011;10834;52.268;6.770;2024-02-16T10:01:21;5.10;;;3.00;;
21352;SDS011;10834;52.268;6.770;2024-02-16T10:04:09;5.97;;;3.20;;
21352;SDS011;10834;52.268;6.770;2024-02-16T10:06:53;5.03;;;3.63;;
21352;SDS011;10834;52.268;6.770;2024-02-16T10:09:38;4.57;;;3.60;;
21352;SDS011;10834;52.268;6.770;2024-02-16T10:12:23;4.20;;;3.47;;
21352;SDS011;10834;52.268;6.770;2024-02-16T10:15:08;6.83;;;3.67;;
21352;SDS011;10834;52.268;6.770;2024-02-16T10:18:03;8.40;;;3.80;;
21352;SDS011;10834;52.268;6.770;2024-02-16T10:20:50;7.23;;;3.93;;
21352;SDS011;10834;52.268;6.770;2024-02-16T10:23:35;6.30;;;3.33;;
21352;SDS011;10834;52.268;6.770;2024-02-16T10:26:20;6.93;;;4.00;;
21352;SDS011;10834;52.268;6.770;2024-02-16T10:29:08;8.33;;;3.87;;
21352;SDS011;10834;52.268;6.770;2024-02-16T10:31:53;5.67;;;4.30;;
21352;SDS011;10834;52.268;6.770;2024-02-16T10:34:38;5.33;;;3.57;;
21352;SDS011;10834;52.268;6.770;2024-02-16T10:37:24;11.03;;;4.33;;
21352;SDS011;10834;52.268;6.770;2024-02-16T10:40:09;5.57;;;3.50;;
21352;SDS011;10834;52.268;6.770;2024-02-16T10:42:57;6.20;;;4.03;;
21352;SDS011;10834;52.268;6.770;2024-02-16T10:45:43;8.57;;;3.97;;
21352;SDS011;10834;52.268;6.770;2024-02-16T10:48:31;9.27;;;3.93;;
21352;SDS011;10834;52.268;6.770;2024-02-16T10:51:16;6.90;;;3.93;;
21352;SDS011;10834;52.268;6.770;2024-02-16T10:54:03;8.27;;;4.63;;
21352;SDS011;10834;52.268;6.770;2024-02-16T10:56:48;9.27;;;4.70;;
21352;SDS011;10834;52.268;6.770;2024-02-16T10:59:42;7.60;;;3.97;;
21352;SDS011;10834;52.268;6.770;2024-02-16T11:02:28;7.93;;;4.10;;
21352;SDS011;10834;52.268;6.770;2024-02-16T11:05:14;6.53;;;4.07;;
21352;SDS011;10834;52.268;6.770;2024-02-16T11:08:03;6.80;;;4.73;;
21352;SDS011;10834;52.268;6.770;2024-02-16T11:10:59;8.97;;;4.93;;
21352;SDS011;10834;52.268;6.770;2024-02-16T11:13:44;10.07;;;4.50;;
21352;SDS011;10834;52.268;6.770;2024-02-16T11:16:29;6.80;;;4.70;;
21352;SDS011;10834;52.268;6.770;2024-02-16T11:19:13;9.60;;;5.00;;
21352;SDS011;10834;52.268;6.770;2024-02-16T11:22:03;11.63;;;4.90;;
21352;SDS011;10834;52.268;6.770;2024-02-16T11:24:53;8.77;;;4.83;;
21352;SDS011;10834;52.268;6.770;2024-02-16T11:27:38;10.50;;;5.03;;
21352;SDS011;10834;52.268;6.770;2024-02-16T11:30:23;9.77;;;5.40;;
21352;SDS011;10834;52.268;6.770;2024-02-16T11:33:11;11.27;;;5.97;;
21352;SDS011;10834;52.268;6.770;2024-02-16T11:35:59;9.43;;;5.63;;
21352;SDS011;10834;52.268;6.770;2024-02-16T11:38:44;9.30;;;5.50;;
21352;SDS011;10834;52.268;6.770;2024-02-16T11:41:28;11.53;;;5.77;;
21352;SDS011;10834;52.268;6.770;2024-02-16T11:44:13;9.90;;;6.70;;
21352;SDS011;10834;52.268;6.770;2024-02-16T11:47:00;9.90;;;5.77;;
21352;SDS011;10834;52.268;6.770;2024-02-16T11:49:46;7.77;;;5.80;;
21352;SDS011;10834;52.268;6.770;2024-02-16T11:52:31;10.27;;;6.53;;
21352;SDS011;10834;52.268;6.770;2024-02-16T11:55:15;9.77;;;6.80;;
21352;SDS011;10834;52.268;6.770;2024-02-16T11:58:00;13.13;;;6.47;;
21352;SDS011;10834;52.268;6.770;2024-02-16T12:00:45;9.80;;;7.20;;
21352;SDS011;10834;52.268;6.770;2024-02-16T12:03:31;10.83;;;7.17;;
21352;SDS011;10834;52.268;6.770;2024-02-16T12:06:21;13.30;;;7.17;;
21352;SDS011;10834;52.268;6.770;2024-02-16T12:09:06;8.80;;;7.37;;
21352;SDS011;10834;52.268;6.770;2024-02-16T12:11:52;10.07;;;7.27;;
21352;SDS011;10834;52.268;6.770;2024-02-16T12:14:38;12.47;;;8.27;;
21352;SDS011;10834;52.268;6.770;2024-02-16T12:17:22;8.97;;;6.87;;
21352;SDS011;10834;52.268;6.770;2024-02-16T12:20:12;11.97;;;8.20;;
21352;SDS011;10834;52.268;6.770;2024-02-16T12:22:57;13.53;;;7.60;;
21352;SDS011;10834;52.268;6.770;2024-02-16T12:25:42;13.80;;;8.63;;
21352;SDS011;10834;52.268;6.770;2024-02-16T12:28:27;11.30;;;8.07;;
21352;SDS011;10834;52.268;6.770;2024-02-16T12:31:19;14.70;;;8.23;;
21352;SDS011;10834;52.268;6.770;2024-02-16T12:34:04;13.03;;;8.37;;
21352;SDS011;10834;52.268;6.770;2024-02-16T12:36:51;15.47;;;9.63;;
21352;SDS011;10834;52.268;6.770;2024-02-16T12:39:35;11.17;;;8.67;;
21352;SDS011;10834;52.268;6.770;2024-02-16T12:42:19;14.80;;;9.03;;
21352;SDS011;10834;52.268;6.770;2024-02-16T12:45:03;15.87;;;8.53;;
21352;SDS011;10834;52.268;6.770;2024-02-16T12:47:47;13.03;;;9.63;;
21352;SDS011;10834;52.268;6.770;2024-02-16T12:50:34;12.03;;;8.60;;
21352;SDS011;10834;52.268;6.770;2024-02-16T12:53:18;12.60;;;8.20;;
21352;SDS011;10834;52.268;6.770;2024-02-16T12:56:02;18.27;;;9.73;;
21352;SDS011;10834;52.268;6.770;2024-02-16T12:58:47;9.80;;;8.83;;
21352;SDS011;10834;52.268;6.770;2024-02-16T13:01:31;13.63;;;9.43;;
21352;SDS011;10834;52.268;6.770;2024-02-16T13:04:16;13.73;;;9.80;;
21352;SDS011;10834;52.268;6.770;2024-02-16T13:07:04;13.10;;;8.83;;
21352;SDS011;10834;52.268;6.770;2024-02-16T13:09:49;13.53;;;9.20;;
21352;SDS011;10834;52.268;6.770;2024-02-16T13:12:37;11.30;;;8.70;;
21352;SDS011;10834;52.268;6.770;2024-02-16T13:15:21;11.73;;;9.60;;
21352;SDS011;10834;52.268;6.770;2024-02-16T13:18:05;10.87;;;9.50;;
21352;SDS011;10834;52.268;6.770;2024-02-16T13:20:49;14.43;;;10.00;;
21352;SDS011;10834;52.268;6.770;2024-02-16T13:23:33;11.30;;;9.73;;
21352;SDS011;10834;52.268;6.770;2024-02-16T13:26:17;15.23;;;9.47;;
21352;SDS011;10834;52.268;6.770;2024-02-16T13:29:02;11.40;;;8.70;;
21352;SDS011;10834;52.268;6.770;2024-02-16T13:31:46;13.37;;;8.57;;
21352;SDS011;10834;52.268;6.770;2024-02-16T13:34:31;12.73;;;9.80;;
21352;SDS011;10834;52.268;6.770;2024-02-16T13:37:15;12.23;;;9.33;;
21352;SDS011;10834;52.268;6.770;2024-02-16T13:40:00;13.93;;;9.83;;
21352;SDS011;10834;52.268;6.770;2024-02-16T13:42:47;9.83;;;8.67;;
21352;SDS011;10834;52.268;6.770;2024-02-16T13:45:47;12.07;;;8.90;;
21352;SDS011;10834;52.268;6.770;2024-02-16T13:48:33;11.50;;;8.60;;
21352;SDS011;10834;52.268;6.770;2024-02-16T13:51:20;12.43;;;9.17;;
21352;SDS011;10834;52.268;6.770;2024-02-16T13:54:05;10.57;;;8.60;;
21352;SDS011;10834;52.268;6.770;2024-02-16T13:56:49;11.47;;;8.47;;
21352;SDS011;10834;52.268;6.770;2024-02-16T13:59:33;13.83;;;8.47;;
21352;SDS011;10834;52.268;6.770;2024-02-16T14:02:17;8.53;;;7.73;;
21352;SDS011;10834;52.268;6.770;2024-02-16T14:05:01;9.27;;;7.90;;
21352;SDS011;10834;52.268;6.770;2024-02-16T14:07:46;9.67;;;7.37;;
21352;SDS011;10834;52.268;6.770;2024-02-16T14:10:31;8.47;;;6.53;;
21352;SDS011;10834;52.268;6.770;2024-02-16T14:13:15;10.80;;;7.50;;
21352;SDS011;10834;52.268;6.770;2024-02-16T14:15:59;8.27;;;7.40;;
21352;SDS011;10834;52.268;6.770;2024-02-16T14:18:44;7.23;;;6.43;;
21352;SDS011;10834;52.268;6.770;2024-02-16T14:21:28;9.27;;;7.50;;
21352;SDS011;10834;52.268;6.770;2024-02-16T14:24:13;8.60;;;7.70;;
21352;SDS011;10834;52.268;6.770;2024-02-16T14:26:57;8.57;;;7.60;;
21352;SDS011;10834;52.268;6.770;2024-02-16T14:29:43;8.53;;;7.53;;
21352;SDS011;10834;52.268;6.770;2024-02-16T14:32:27;6.67;;;6.00;;
21352;SDS011;10834;52.268;6.770;2024-02-16T14:35:11;7.00;;;6.30;;
21352;SDS011;10834;52.268;6.770;2024-02-16T14:37:55;7.40;;;6.67;;
21352;SDS011;10834;52.268;6.770;2024-02-16T14:40:39;7.67;;;6.43;;
21352;SDS011;10834;52.268;6.770;2024-02-16T14:43:24;7.03;;;6.07;;
21352;SDS011;10834;52.268;6.770;2024-02-16T14:46:08;7.60;;;5.60;;
21352;SDS011;10834;52.268;6.770;2024-02-16T14:48:52;7.40;;;5.37;;
21352;SDS011;10834;52.268;6.770;2024-02-16T14:51:40;5.23;;;4.83;;
21352;SDS011;10834;52.268;6.770;2024-02-16T14:54:26;5.00;;;4.33;;
21352;SDS011;10834;52.268;6.770;2024-02-16T14:57:10;4.63;;;4.17;;
21352;SDS011;10834;52.268;6.770;2024-02-16T14:59:55;7.03;;;4.50;;
21352;SDS011;10834;52.268;6.770;2024-02-16T15:02:40;5.03;;;4.07;;
21352;SDS011;10834;52.268;6.770;2024-02-16T15:05:26;5.70;;;4.57;;
21352;SDS011;10834;52.268;6.770;2024-02-16T15:08:09;7.73;;;5.40;;
21352;SDS011;10834;52.268;6.770;2024-02-16T15:10:54;6.20;;;4.73;;
21352;SDS011;10834;52.268;6.770;2024-02-16T15:13:38;6.20;;;3.97;;
21352;SDS011;10834;52.268;6.770;2024-02-16T15:16:22;4.20;;;3.80;;
21352;SDS011;10834;52.268;6.770;2024-02-16T15:19:06;4.43;;;4.03;;
21352;SDS011;10834;52.268;6.770;2024-02-16T15:21:51;7.13;;;3.80;;
21352;SDS011;10834;52.268;6.770;2024-02-16T15:24:35;5.30;;;4.90;;
21352;SDS011;10834;52.268;6.770;2024-02-16T15:27:20;4.27;;;3.87;;
21352;SDS011;10834;52.268;6.770;2024-02-16T15:30:04;3.57;;;2.97;;
21352;SDS011;10834;52.268;6.770;2024-02-16T15:32:49;3.93;;;3.27;;
21352;SDS011;10834;52.268;6.770;2024-02-16T15:35:34;3.17;;;2.97;;
21352;SDS011;10834;52.268;6.770;2024-02-16T15:38:19;3.30;;;3.00;;
21352;SDS011;10834;52.268;6.770;2024-02-16T15:41:03;5.17;;;3.10;;
21352;SDS011;10834;52.268;6.770;2024-02-16T15:43:49;4.13;;;3.73;;
21352;SDS011;10834;52.268;6.770;2024-02-16T15:46:34;7.23;;;3.90;;
21352;SDS011;10834;52.268;6.770;2024-02-16T15:49:18;3.20;;;2.90;;
21352;SDS011;10834;52.268;6.770;2024-02-16T15:52:02;3.83;;;3.50;;
21352;SDS011;10834;52.268;6.770;2024-02-16T15:54:47;8.77;;;4.03;;
21352;SDS011;10834;52.268;6.770;2024-02-16T15:57:32;3.13;;;2.83;;
21352;SDS011;10834;52.268;6.770;2024-02-16T16:00:16;6.20;;;3.50;;
21352;SDS011;10834;52.268;6.770;2024-02-16T16:03:00;4.20;;;3.80;;
21352;SDS011;10834;52.268;6.770;2024-02-16T16:05:44;4.10;;;3.77;;
21352;SDS011;10834;52.268;6.770;2024-02-16T16:08:28;4.30;;;3.90;;
21352;SDS011;10834;52.268;6.770;2024-02-16T16:11:19;4.00;;;3.70;;
21352;SDS011;10834;52.268;6.770;2024-02-16T16:14:04;3.93;;;3.63;;
21352;SDS011;10834;52.268;6.770;2024-02-16T16:16:48;7.03;;;3.17;;
21352;SDS011;10834;52.268;6.770;2024-02-16T16:19:37;3.90;;;3.20;;
21352;SDS011;10834;52.268;6.770;2024-02-16T16:22:21;4.70;;;3.60;;
21352;SDS011;10834;52.268;6.770;2024-02-16T16:25:05;3.50;;;3.20;;
21352;SDS011;10834;52.268;6.770;2024-02-16T16:27:51;4.23;;;3.03;;
21352;SDS011;10834;52.268;6.770;2024-02-16T16:30:35;4.70;;;3.77;;